createdAt,value
2017-11-27T00:01:02.310Z,100264.88
2017-11-27T00:03:32.074Z,100268.20
2017-11-27T00:06:01.883Z,100263.08
2017-11-27T00:08:31.014Z,100267.27
2017-11-27T00:11:01.160Z,100272.73
2017-11-27T00:13:34.102Z,100271.02
2017-11-27T00:16:03.124Z,100279.06
2017-11-27T00:18:32.174Z,100285.48
2017-11-27T00:21:01.936Z,100278.22
2017-11-27T00:23:32.885Z,100282.47
2017-11-27T00:28:39.000Z,100275.96
2017-11-27T00:31:08.001Z,100273.38
2017-11-27T00:33:38.632Z,100267.41
2017-11-27T00:36:10.952Z,100269.92
2017-11-27T00:38:39.992Z,100271.62
2017-11-27T00:41:09.865Z,100272.00
2017-11-27T00:46:12.952Z,100262.64
2017-11-27T00:48:42.316Z,100269.06
2017-11-27T00:51:11.416Z,100274.98
2017-11-27T00:53:40.509Z,100270.38
2017-11-27T00:56:10.465Z,100263.98
2017-11-27T00:58:39.624Z,100263.92
2017-11-27T01:01:13.666Z,100262.55
2017-11-27T01:03:42.888Z,100256.57
2017-11-27T01:06:12.950Z,100254.08
2017-11-27T01:08:42.339Z,100252.83
2017-11-27T01:11:11.453Z,100254.56
2017-11-27T01:13:42.084Z,100251.69
2017-11-27T01:16:12.055Z,100250.01
2017-11-27T01:18:41.094Z,100252.97
2017-11-27T01:21:10.073Z,100251.63
2017-11-27T01:26:14.143Z,100244.03
2017-11-27T01:28:43.246Z,100250.34
2017-11-27T01:31:12.313Z,100242.23
2017-11-27T01:33:42.495Z,100249.92
2017-11-27T01:36:12.428Z,100247.75
2017-11-27T01:38:41.685Z,100252.33
2017-11-27T01:41:10.781Z,100245.61
2017-11-27T01:43:39.775Z,100250.22
2017-11-27T01:46:10.820Z,100243.42
2017-11-27T01:48:39.826Z,100237.47
2017-11-27T01:51:08.862Z,100244.71
2017-11-27T01:53:38.107Z,100240.48
2017-11-27T01:56:07.259Z,100239.16
2017-11-27T01:58:36.463Z,100227.74
2017-11-27T02:01:06.416Z,100221.78
2017-11-27T02:03:35.573Z,100222.69
2017-11-27T02:06:04.671Z,100225.20
2017-11-27T02:08:34.823Z,100218.84
2017-11-27T02:11:03.988Z,100225.67
2017-11-27T02:13:33.188Z,100232.03
2017-11-27T02:16:02.487Z,100237.12
2017-11-27T02:18:32.861Z,100236.25
2017-11-27T02:21:01.963Z,100236.26
2017-11-27T02:23:33.354Z,100240.12
2017-11-27T02:26:03.587Z,100235.48
2017-11-27T02:28:32.683Z,100240.99
2017-11-27T02:31:03.797Z,100238.88
2017-11-27T02:33:33.683Z,100248.67
2017-11-27T02:36:02.666Z,100253.81
2017-11-27T02:38:32.069Z,100248.83
2017-11-27T02:41:01.330Z,100253.94
2017-11-27T02:43:30.672Z,100250.13
2017-11-27T02:46:00.818Z,100251.36
2017-11-27T02:48:30.255Z,100249.24
2017-11-27T02:50:59.474Z,100248.77
2017-11-27T02:53:29.575Z,100250.55
2017-11-27T02:55:58.838Z,100249.23
2017-11-27T02:58:29.644Z,100250.50
2017-11-27T03:00:59.630Z,100243.72
2017-11-27T03:03:30.706Z,100253.45
2017-11-27T03:05:59.666Z,100255.17
2017-11-27T03:08:29.005Z,100251.34
2017-11-27T03:10:58.060Z,100257.72
2017-11-27T03:13:27.254Z,100254.81
2017-11-27T03:15:56.557Z,100256.54
2017-11-27T03:18:25.547Z,100253.46
2017-11-27T03:20:54.499Z,100249.72
2017-11-27T03:23:24.362Z,100257.77
2017-11-27T03:25:53.452Z,100258.56
2017-11-27T03:28:22.509Z,100261.90
2017-11-27T03:30:51.763Z,100259.82
2017-11-27T03:33:22.928Z,100258.16
2017-11-27T03:35:53.277Z,100256.41
2017-11-27T03:38:22.385Z,100252.62
2017-11-27T03:40:52.280Z,100252.69
2017-11-27T03:43:24.032Z,100255.30
2017-11-27T03:45:53.238Z,100261.55
2017-11-27T03:48:22.231Z,100253.15
2017-11-27T03:50:52.077Z,100255.30
2017-11-27T03:53:21.609Z,100262.52
2017-11-27T03:55:50.795Z,100257.45
2017-11-27T03:58:22.861Z,100263.80
2017-11-27T04:00:53.551Z,100257.94
2017-11-27T04:03:22.523Z,100263.55
2017-11-27T04:05:53.296Z,100268.24
2017-11-27T04:08:25.230Z,100267.48
2017-11-27T04:10:54.280Z,100272.56
2017-11-27T04:15:58.284Z,100273.50
2017-11-27T04:18:28.439Z,100274.39
2017-11-27T04:23:32.812Z,100265.61
2017-11-27T04:26:01.923Z,100261.85
2017-11-27T04:28:31.062Z,100266.97
2017-11-27T04:31:00.403Z,100262.80
2017-11-27T04:33:30.262Z,100270.07
2017-11-27T04:36:02.150Z,100268.84
2017-11-27T04:38:31.173Z,100272.62
2017-11-27T04:41:00.238Z,100270.13
2017-11-27T04:43:30.693Z,100273.11
2017-11-27T04:46:00.776Z,100271.45
2017-11-27T04:48:29.867Z,100274.42
2017-11-27T04:50:59.987Z,100279.94
2017-11-27T04:53:30.922Z,100274.86
2017-11-27T04:56:01.847Z,100283.77
2017-11-27T04:58:30.855Z,100286.74
2017-11-27T05:00:59.851Z,100289.32
2017-11-27T05:03:30.042Z,100294.45
2017-11-27T05:05:59.015Z,100297.06
2017-11-27T05:08:34.071Z,100300.47
2017-11-27T05:11:03.197Z,100306.41
2017-11-27T05:13:32.191Z,100315.29
2017-11-27T05:16:01.289Z,100319.55
2017-11-27T05:18:30.246Z,100313.23
2017-11-27T05:20:59.630Z,100313.25
2017-11-27T05:23:29.523Z,100312.38
2017-11-27T05:25:59.308Z,100311.93
2017-11-27T05:28:28.443Z,100320.38
2017-11-27T05:30:58.301Z,100318.27
2017-11-27T05:33:28.949Z,100310.70
2017-11-27T05:35:58.970Z,100306.88
2017-11-27T05:38:28.068Z,100304.31
2017-11-27T05:40:56.938Z,100311.50
2017-11-27T05:43:26.052Z,100316.59
2017-11-27T05:45:56.049Z,100318.72
2017-11-27T05:48:26.677Z,100313.23
2017-11-27T05:50:55.553Z,100316.58
2017-11-27T05:53:24.877Z,100312.81
2017-11-27T05:55:53.886Z,100316.61
2017-11-27T05:58:24.008Z,100313.27
2017-11-27T06:00:55.981Z,100320.86
2017-11-27T06:03:24.949Z,100326.78
2017-11-27T06:05:53.897Z,100333.97
2017-11-27T06:08:24.585Z,100344.12
2017-11-27T06:10:54.711Z,100339.47
2017-11-27T06:13:28.722Z,100339.06
2017-11-27T06:15:58.842Z,100340.33
2017-11-27T06:18:35.860Z,100346.67
2017-11-27T06:21:05.879Z,100356.38
2017-11-27T06:23:36.064Z,100354.70
2017-11-27T06:26:05.912Z,100361.03
2017-11-27T06:28:35.815Z,100358.07
2017-11-27T06:31:05.812Z,100364.83
2017-11-27T06:33:35.105Z,100360.16
2017-11-27T06:36:04.109Z,100354.20
2017-11-27T06:38:34.201Z,100359.26
2017-11-27T06:41:05.980Z,100354.55
2017-11-27T06:43:35.010Z,100358.30
2017-11-27T06:46:04.164Z,100354.43
2017-11-27T06:48:36.418Z,100353.47
2017-11-27T06:51:05.481Z,100356.36
2017-11-27T06:53:34.667Z,100365.52
2017-11-27T06:56:04.706Z,100355.69
2017-11-27T06:58:33.848Z,100362.81
2017-11-27T07:01:02.866Z,100375.53
2017-11-27T07:03:35.104Z,100374.83
2017-11-27T07:06:04.249Z,100376.20
2017-11-27T07:08:33.283Z,100375.31
2017-11-27T07:11:02.281Z,100377.81
2017-11-27T07:13:32.382Z,100387.62
2017-11-27T07:18:37.674Z,100396.87
2017-11-27T07:21:07.336Z,100400.77
2017-11-27T07:23:38.259Z,100406.21
2017-11-27T07:26:10.188Z,100393.50
2017-11-27T07:28:40.038Z,100391.39
2017-11-27T07:31:09.072Z,100392.09
2017-11-27T07:33:40.591Z,100393.64
2017-11-27T07:36:10.000Z,100392.08
2017-11-27T07:38:44.794Z,100400.53
2017-11-27T07:41:14.428Z,100403.63
2017-11-27T07:43:46.791Z,100409.14
2017-11-27T07:48:50.502Z,100423.16
2017-11-27T07:51:19.624Z,100426.08
2017-11-27T07:53:49.461Z,100425.17
2017-11-27T07:56:19.407Z,100428.56
2017-11-27T07:58:48.301Z,100437.04
2017-11-27T08:01:20.057Z,100442.27
2017-11-27T08:03:49.298Z,100435.04
2017-11-27T08:06:18.353Z,100440.09
2017-11-27T08:08:48.511Z,100434.56
2017-11-27T08:11:17.703Z,100428.28
2017-11-27T08:13:46.912Z,100433.79
2017-11-27T08:18:50.795Z,100448.58
2017-11-27T08:21:20.914Z,100452.12
2017-11-27T08:23:50.915Z,100451.73
2017-11-27T08:26:20.843Z,100449.23
2017-11-27T08:28:50.555Z,100449.53
2017-11-27T08:31:21.395Z,100435.06
2017-11-27T08:33:54.183Z,100439.34
2017-11-27T08:36:23.273Z,100446.63
2017-11-27T08:38:52.374Z,100443.21
2017-11-27T08:41:21.314Z,100438.91
2017-11-27T08:43:51.173Z,100433.87
2017-11-27T08:46:20.225Z,100425.41
2017-11-27T08:48:51.433Z,100421.60
2017-11-27T08:51:20.441Z,100423.37
2017-11-27T08:53:49.506Z,100426.20
2017-11-27T08:56:20.445Z,100419.95
2017-11-27T08:58:50.394Z,100418.11
2017-11-27T09:01:22.748Z,100421.05
2017-11-27T09:03:54.196Z,100409.18
2017-11-27T09:06:25.022Z,100401.50
2017-11-27T09:08:54.201Z,100402.70
2017-11-27T09:11:23.301Z,100399.70
2017-11-27T09:13:55.275Z,100391.55
2017-11-27T09:16:24.311Z,100399.97
2017-11-27T09:18:53.440Z,100397.66
2017-11-27T09:21:22.460Z,100394.05
2017-11-27T09:23:51.668Z,100396.83
2017-11-27T09:26:20.960Z,100392.08
2017-11-27T09:28:55.686Z,100391.20
2017-11-27T09:31:24.778Z,100384.09
2017-11-27T09:33:53.815Z,100388.34
2017-11-27T09:36:26.055Z,100380.31
2017-11-27T09:38:55.249Z,100375.83
2017-11-27T09:41:26.050Z,100365.73
2017-11-27T09:43:58.380Z,100361.41
2017-11-27T09:46:28.473Z,100343.77
2017-11-27T09:49:00.923Z,100332.70
2017-11-27T09:51:29.904Z,100320.92
2017-11-27T09:56:34.711Z,100314.11
2017-11-27T09:59:04.661Z,100309.08
2017-11-27T10:01:33.685Z,100315.94
2017-11-27T10:06:39.121Z,100323.58
2017-11-27T10:09:08.205Z,100331.16
2017-11-27T10:11:38.084Z,100330.31
2017-11-27T10:14:07.075Z,100317.18
2017-11-27T10:16:36.209Z,100328.99
2017-11-27T10:19:06.974Z,100319.31
2017-11-27T10:21:35.998Z,100300.73
2017-11-27T10:24:06.224Z,100309.26
2017-11-27T10:26:36.350Z,100301.13
2017-11-27T10:29:06.353Z,100292.64
2017-11-27T10:31:38.988Z,100299.01
2017-11-27T10:34:10.518Z,100299.51
2017-11-27T10:39:15.329Z,100311.06
2017-11-27T10:41:45.267Z,100306.83
2017-11-27T10:44:14.337Z,100302.62
2017-11-27T10:51:53.917Z,100286.91
2017-11-27T10:54:22.913Z,100277.19
2017-11-27T10:56:51.907Z,100267.00
2017-11-27T10:59:22.022Z,100259.39
2017-11-27T11:01:51.127Z,100267.87
2017-11-27T11:04:20.321Z,100278.81
2017-11-27T11:06:53.000Z,100274.11
2017-11-27T11:09:25.676Z,100271.23
2017-11-27T11:11:57.846Z,100274.22
2017-11-27T11:14:27.043Z,100278.84
2017-11-27T11:16:57.777Z,100280.21
2017-11-27T11:22:01.090Z,100274.25
2017-11-27T11:24:32.952Z,100278.44
2017-11-27T11:27:02.923Z,100290.72
2017-11-27T11:29:31.973Z,100288.64
2017-11-27T11:32:01.051Z,100284.37
2017-11-27T11:34:31.269Z,100288.19
2017-11-27T11:37:01.093Z,100272.19
2017-11-27T11:39:30.064Z,100269.63
2017-11-27T11:42:00.103Z,100268.78
2017-11-27T11:44:29.339Z,100275.11
2017-11-27T11:46:59.979Z,100260.34
2017-11-27T11:49:30.634Z,100267.50
2017-11-27T11:51:59.702Z,100261.13
2017-11-27T11:54:28.659Z,100263.28
2017-11-27T11:56:59.152Z,100251.50
2017-11-27T11:59:28.290Z,100249.84
2017-11-27T12:01:57.631Z,100235.03
2017-11-27T12:04:28.010Z,100232.96
2017-11-27T12:06:57.160Z,100240.57
2017-11-27T12:09:26.310Z,100223.64
2017-11-27T12:11:59.908Z,100224.45
2017-11-27T12:14:29.880Z,100221.90
2017-11-27T12:16:58.912Z,100212.23
2017-11-27T12:19:28.165Z,100211.41
2017-11-27T12:21:57.207Z,100212.67
2017-11-27T12:24:26.308Z,100208.45
2017-11-27T12:26:56.304Z,100202.95
2017-11-27T12:29:26.141Z,100198.31
2017-11-27T12:31:55.336Z,100186.06
2017-11-27T12:34:24.542Z,100188.19
2017-11-27T12:36:53.478Z,100195.34
2017-11-27T12:39:23.398Z,100197.49
2017-11-27T12:41:53.363Z,100183.09
2017-11-27T12:44:22.633Z,100189.45
2017-11-27T12:46:51.965Z,100187.73
2017-11-27T12:49:23.716Z,100184.31
2017-11-27T12:51:53.537Z,100178.01
2017-11-27T12:54:22.524Z,100172.93
2017-11-27T12:56:52.581Z,100169.12
2017-11-27T12:59:21.994Z,100166.16
2017-11-27T13:01:50.976Z,100170.84
2017-11-27T13:04:20.434Z,100166.58
2017-11-27T13:06:49.586Z,100166.61
2017-11-27T13:21:20.974Z,100154.00
2017-11-27T13:23:49.960Z,100167.51
2017-11-27T13:26:18.960Z,100160.75
2017-11-27T13:28:48.668Z,100159.89
2017-11-27T13:31:17.667Z,100153.58
2017-11-27T13:33:47.530Z,100154.82
2017-11-27T13:36:17.495Z,100155.68
2017-11-27T13:38:54.480Z,100159.90
2017-11-27T13:43:57.584Z,100162.02
2017-11-27T13:46:26.677Z,100167.52
2017-11-27T13:48:55.987Z,100173.42
2017-11-27T13:51:24.909Z,100175.53
2017-11-27T13:53:54.458Z,100175.52
2017-11-27T13:58:58.649Z,100160.72
2017-11-27T14:01:27.709Z,100148.91
2017-11-27T14:03:57.725Z,100148.07
2017-11-27T14:06:27.433Z,100133.70
2017-11-27T14:08:57.346Z,100131.17
2017-11-27T14:11:26.691Z,100132.86
2017-11-27T14:13:55.746Z,100126.97
2017-11-27T14:16:24.832Z,100121.05
2017-11-27T14:18:54.764Z,100126.53
2017-11-27T14:21:23.645Z,100121.03
2017-11-27T14:23:53.564Z,100113.42
2017-11-27T14:28:56.468Z,100113.02
2017-11-27T14:31:25.503Z,100112.58
2017-11-27T14:33:54.660Z,100110.48
2017-11-27T14:36:24.880Z,100113.44
2017-11-27T14:38:53.868Z,100116.81
2017-11-27T14:41:23.073Z,100113.84
2017-11-27T14:43:52.257Z,100115.95
2017-11-27T14:46:21.671Z,100118.50
2017-11-27T14:48:50.704Z,100117.23
2017-11-27T14:51:19.878Z,100113.41
2017-11-27T14:53:49.573Z,100115.12
2017-11-27T14:56:20.310Z,100113.00
2017-11-27T14:58:49.461Z,100113.84
2017-11-27T15:01:18.707Z,100113.42
2017-11-27T15:03:49.749Z,100110.05
2017-11-27T15:06:19.108Z,100104.98
2017-11-27T15:08:48.581Z,100106.67
2017-11-27T15:11:17.757Z,100113.02
2017-11-27T15:13:47.777Z,100120.19
2017-11-27T15:16:17.568Z,100106.68
2017-11-27T15:18:48.947Z,100105.39
2017-11-27T15:21:18.118Z,100109.23
2017-11-27T15:23:47.431Z,100096.97
2017-11-27T15:26:16.667Z,100099.92
2017-11-27T15:28:46.683Z,100092.77
2017-11-27T15:31:15.746Z,100088.11
2017-11-27T15:33:46.679Z,100093.59
2017-11-27T15:36:19.352Z,100092.31
2017-11-27T15:38:48.560Z,100095.72
2017-11-27T15:41:17.863Z,100087.27
2017-11-27T15:43:46.996Z,100087.27
2017-11-27T15:46:17.076Z,100085.57
2017-11-27T15:48:46.625Z,100086.02
2017-11-27T15:51:16.685Z,100087.71
2017-11-27T15:53:46.207Z,100096.12
2017-11-27T15:56:15.658Z,100104.17
2017-11-27T15:58:44.961Z,100105.84
2017-11-27T16:01:16.128Z,100111.77
2017-11-27T16:03:45.899Z,100109.66
2017-11-27T16:06:15.167Z,100109.20
2017-11-27T16:08:44.478Z,100105.41
2017-11-27T16:11:13.669Z,100107.94
2017-11-27T16:13:42.804Z,100102.05
2017-11-27T16:16:12.173Z,100107.11
2017-11-27T16:18:41.470Z,100099.92
2017-11-27T16:21:10.546Z,100087.70
2017-11-27T16:23:41.699Z,100083.03
2017-11-27T16:26:10.840Z,100080.92
2017-11-27T16:28:40.004Z,100080.50
2017-11-27T16:31:09.305Z,100087.23
2017-11-27T16:33:38.441Z,100084.30
2017-11-27T16:36:07.597Z,100088.09
2017-11-27T16:38:37.816Z,100078.37
2017-11-27T16:41:07.778Z,100065.75
2017-11-27T16:43:36.934Z,100057.31
2017-11-27T16:46:06.973Z,100051.80
2017-11-27T16:48:36.152Z,100048.42
2017-11-27T16:51:05.349Z,100050.12
2017-11-27T16:53:34.784Z,100041.68
2017-11-27T16:56:03.940Z,100049.27
2017-11-27T16:58:33.103Z,100057.70
2017-11-27T17:01:05.933Z,100061.11
2017-11-27T17:03:35.917Z,100058.99
2017-11-27T17:06:07.065Z,100056.46
2017-11-27T17:08:36.605Z,100061.09
2017-11-27T17:11:07.340Z,100055.62
2017-11-27T17:13:36.469Z,100055.21
2017-11-27T17:16:06.625Z,100066.59
2017-11-27T17:21:13.482Z,100056.03
2017-11-27T17:23:42.684Z,100049.28
2017-11-27T17:26:12.870Z,100046.30
2017-11-27T17:31:16.150Z,100044.20
2017-11-27T17:33:46.032Z,100043.77
2017-11-27T17:36:15.397Z,100034.47
2017-11-27T17:38:47.255Z,100037.83
2017-11-27T17:41:19.731Z,100039.55
2017-11-27T17:43:48.922Z,100042.48
2017-11-27T17:46:18.124Z,100039.50
2017-11-27T17:48:47.225Z,100038.20
2017-11-27T17:51:17.421Z,100041.55
2017-11-27T17:53:46.899Z,100036.06
2017-11-27T17:56:16.403Z,100027.62
2017-11-27T17:58:45.488Z,100027.20
2017-11-27T18:01:15.569Z,100022.12
2017-11-27T18:03:45.778Z,100023.00
2017-11-27T18:06:15.086Z,100015.38
2017-11-27T18:08:44.429Z,100013.23
2017-11-27T18:11:15.184Z,100020.00
2017-11-27T18:13:44.355Z,100019.13
2017-11-27T18:16:13.462Z,100015.30
2017-11-27T18:18:44.059Z,100007.69
2017-11-27T18:21:13.575Z,100003.00
2017-11-27T18:23:42.895Z,99993.27
2017-11-27T18:26:15.753Z,99985.23
2017-11-27T18:28:44.988Z,99980.97
2017-11-27T18:31:14.958Z,99978.93
2017-11-27T18:33:45.966Z,99979.83
2017-11-27T18:36:15.304Z,99972.14
2017-11-27T18:38:47.369Z,99975.48
2017-11-27T18:41:18.913Z,99980.16
2017-11-27T18:43:48.536Z,99984.40
2017-11-27T18:46:17.978Z,99967.48
2017-11-27T18:48:47.385Z,99969.38
2017-11-27T18:53:51.879Z,99964.76
2017-11-27T18:56:21.947Z,99965.16
2017-11-27T18:58:52.023Z,99968.97
2017-11-27T19:01:21.912Z,99976.97
2017-11-27T19:03:51.064Z,99974.40
2017-11-27T19:06:20.430Z,99976.55
2017-11-27T19:08:49.769Z,99966.42
2017-11-27T19:11:19.039Z,99967.69
2017-11-27T19:13:48.328Z,99958.42
2017-11-27T19:16:18.459Z,99958.78
2017-11-27T19:18:47.451Z,99961.34
2017-11-27T19:21:16.601Z,99957.61
2017-11-27T19:23:46.048Z,99956.75
2017-11-27T19:26:15.244Z,99953.81
2017-11-27T19:28:44.521Z,99952.95
2017-11-27T19:31:13.843Z,99951.66
2017-11-27T19:33:43.088Z,99940.23
2017-11-27T19:36:18.382Z,99943.23
2017-11-27T19:38:47.654Z,99931.37
2017-11-27T19:41:17.299Z,99930.52
2017-11-27T19:43:48.443Z,99920.38
2017-11-27T19:46:19.181Z,99919.95
2017-11-27T19:48:48.475Z,99914.89
2017-11-27T19:51:18.429Z,99909.43
2017-11-27T19:53:49.765Z,99912.34
2017-11-27T19:58:56.114Z,99900.53
2017-11-27T20:01:27.862Z,99896.31
2017-11-27T20:03:57.075Z,99890.83
2017-11-27T20:06:26.139Z,99880.70
2017-11-27T20:08:56.396Z,99874.34
2017-11-27T20:11:25.650Z,99875.17
2017-11-27T20:13:55.714Z,99864.64
2017-11-27T20:16:26.614Z,99868.86
2017-11-27T20:18:56.102Z,99868.03
2017-11-27T20:21:26.442Z,99863.01
2017-11-27T20:23:57.754Z,99857.16
2017-11-27T20:26:27.008Z,99856.37
2017-11-27T20:28:56.806Z,99850.84
2017-11-27T20:31:28.203Z,99850.02
2017-11-27T20:33:57.544Z,99844.55
2017-11-27T20:36:27.170Z,99841.09
2017-11-27T20:38:58.280Z,99841.08
2017-11-27T20:41:27.562Z,99838.11
2017-11-27T20:43:57.617Z,99832.58
2017-11-27T20:46:27.185Z,99833.41
2017-11-27T20:48:57.137Z,99826.23
2017-11-27T20:51:26.919Z,99819.09
2017-11-27T20:53:59.480Z,99816.68
2017-11-27T20:56:28.884Z,99812.44
2017-11-27T20:58:58.000Z,99814.45
2017-11-27T21:01:27.147Z,99817.42
2017-11-27T21:03:56.511Z,99816.15
2017-11-27T21:06:25.675Z,99823.73
2017-11-27T21:08:55.882Z,99806.81
2017-11-27T21:11:25.892Z,99800.11
2017-11-27T21:13:55.218Z,99806.00
2017-11-27T21:16:25.590Z,99794.56
2017-11-27T21:18:54.916Z,99799.19
2017-11-27T21:21:31.165Z,99793.67
2017-11-27T21:24:01.438Z,99789.44
2017-11-27T21:26:30.628Z,99790.70
2017-11-27T21:29:00.628Z,99793.27
2017-11-27T21:31:29.720Z,99794.98
2017-11-27T21:33:58.797Z,99785.75
2017-11-27T21:36:27.866Z,99785.28
2017-11-27T21:38:57.070Z,99778.88
2017-11-27T21:41:29.822Z,99784.73
2017-11-27T21:43:59.285Z,99780.44
2017-11-27T21:46:32.631Z,99782.27
2017-11-27T21:49:01.960Z,99776.31
2017-11-27T21:51:31.112Z,99762.83
2017-11-27T21:54:00.508Z,99769.25
2017-11-27T21:56:29.598Z,99772.63
2017-11-27T21:58:58.817Z,99770.50
2017-11-27T22:01:28.831Z,99779.42
2017-11-27T22:03:58.023Z,99773.49
2017-11-27T22:06:27.123Z,99770.14
2017-11-27T22:08:56.398Z,99773.94
2017-11-27T22:11:25.383Z,99774.47
2017-11-27T22:13:54.624Z,99761.39
2017-11-27T22:16:24.847Z,99748.78
2017-11-27T22:18:53.982Z,99757.65
2017-11-27T22:21:23.138Z,99767.81
2017-11-27T22:23:53.196Z,99755.56
2017-11-27T22:26:22.406Z,99751.41
2017-11-27T22:28:51.673Z,99746.81
2017-11-27T22:31:22.393Z,99752.70
2017-11-27T22:33:52.202Z,99750.61
2017-11-27T22:36:21.849Z,99746.86
2017-11-27T22:38:51.406Z,99743.95
2017-11-27T22:41:20.408Z,99742.27
2017-11-27T22:43:50.972Z,99745.27
2017-11-27T22:46:21.255Z,99733.47
2017-11-27T22:48:50.557Z,99731.80
2017-11-27T22:51:19.653Z,99727.98
2017-11-27T22:53:49.912Z,99729.73
2017-11-27T22:56:19.084Z,99722.19
2017-11-27T22:58:48.325Z,99726.83
2017-11-27T23:01:17.677Z,99726.84
2017-11-27T23:03:46.875Z,99727.70
2017-11-27T23:06:17.005Z,99728.56
2017-11-27T23:08:47.492Z,99717.21
2017-11-27T23:11:16.646Z,99716.36
2017-11-27T23:13:45.886Z,99715.93
2017-11-27T23:16:15.004Z,99711.29
2017-11-27T23:18:44.357Z,99705.40
2017-11-27T23:21:13.671Z,99703.72
2017-11-27T23:23:42.938Z,99702.03
2017-11-27T23:26:12.118Z,99696.16
2017-11-27T23:28:42.860Z,99701.20
2017-11-27T23:33:47.695Z,99705.00
2017-11-27T23:36:17.579Z,99704.16
2017-11-27T23:38:46.854Z,99695.31
2017-11-27T23:41:17.653Z,99703.73
2017-11-27T23:43:46.982Z,99700.79
2017-11-27T23:46:16.152Z,99705.00
2017-11-27T23:48:45.586Z,99693.19
2017-11-27T23:51:14.788Z,99691.93
2017-11-27T23:53:44.657Z,99695.72
2017-11-27T23:56:14.673Z,99702.88
2017-11-27T23:58:43.800Z,99699.06
